sensor_id;sensor_type;location;lat;lon;timestamp;P1;durP1;ratioP1;P2;durP2;ratioP2
11211;SDS011;5663;50.864;12.096;2022-10-16T00:02:30;1.43;;;1.10;;
11211;SDS011;5663;50.864;12.096;2022-10-16T00:05:01;2.27;;;1.10;;
11211;SDS011;5663;50.864;12.096;2022-10-16T00:07:31;1.27;;;1.00;;
11211;SDS011;5663;50.864;12.096;2022-10-16T00:10:04;2.23;;;0.80;;
11211;SDS011;5663;50.864;12.096;2022-10-16T00:12:32;1.83;;;1.00;;
11211;SDS011;5663;50.864;12.096;2022-10-16T00:15:01;6.23;;;1.03;;
11211;SDS011;5663;50.864;12.096;2022-10-16T00:17:30;6.67;;;1.20;;
11211;SDS011;5663;50.864;12.096;2022-10-16T00:19:58;7.10;;;1.00;;
11211;SDS011;5663;50.864;12.096;2022-10-16T00:22:25;3.10;;;1.10;;
11211;SDS011;5663;50.864;12.096;2022-10-16T00:24:53;2.47;;;0.93;;
11211;SDS011;5663;50.864;12.096;2022-10-16T00:27:21;4.73;;;1.20;;
11211;SDS011;5663;50.864;12.096;2022-10-16T00:29:49;2.00;;;0.90;;
11211;SDS011;5663;50.864;12.096;2022-10-16T00:32:17;1.23;;;1.07;;
11211;SDS011;5663;50.864;12.096;2022-10-16T00:34:46;2.27;;;1.20;;
11211;SDS011;5663;50.864;12.096;2022-10-16T00:37:14;2.63;;;1.30;;
11211;SDS011;5663;50.864;12.096;2022-10-16T00:39:41;5.83;;;1.17;;
11211;SDS011;5663;50.864;12.096;2022-10-16T00:42:09;1.63;;;0.80;;
11211;SDS011;5663;50.864;12.096;2022-10-16T00:44:42;2.20;;;0.87;;
11211;SDS011;5663;50.864;12.096;2022-10-16T00:47:15;0.80;;;0.80;;
11211;SDS011;5663;50.864;12.096;2022-10-16T00:49:48;1.73;;;0.80;;
11211;SDS011;5663;50.864;12.096;2022-10-16T00:52:18;2.13;;;0.80;;
11211;SDS011;5663;50.864;12.096;2022-10-16T00:54:46;1.63;;;0.80;;
11211;SDS011;5663;50.864;12.096;2022-10-16T00:57:17;1.77;;;0.80;;
11211;SDS011;5663;50.864;12.096;2022-10-16T00:59:44;3.40;;;1.30;;
11211;SDS011;5663;50.864;12.096;2022-10-16T01:02:14;5.30;;;1.30;;
11211;SDS011;5663;50.864;12.096;2022-10-16T01:04:45;1.77;;;0.90;;
11211;SDS011;5663;50.864;12.096;2022-10-16T01:07:20;2.87;;;1.00;;
11211;SDS011;5663;50.864;12.096;2022-10-16T01:10:03;0.93;;;0.80;;
11211;SDS011;5663;50.864;12.096;2022-10-16T01:12:39;3.40;;;1.07;;
11211;SDS011;5663;50.864;12.096;2022-10-16T01:15:12;3.73;;;0.90;;
11211;SDS011;5663;50.864;12.096;2022-10-16T01:17:46;1.57;;;0.90;;
11211;SDS011;5663;50.864;12.096;2022-10-16T01:20:23;5.50;;;1.20;;
11211;SDS011;5663;50.864;12.096;2022-10-16T01:23:12;1.77;;;1.00;;
11211;SDS011;5663;50.864;12.096;2022-10-16T01:25:52;6.40;;;1.03;;
11211;SDS011;5663;50.864;12.096;2022-10-16T01:28:47;2.80;;;1.00;;
11211;SDS011;5663;50.864;12.096;2022-10-16T01:31:22;3.90;;;1.00;;
11211;SDS011;5663;50.864;12.096;2022-10-16T01:33:54;2.10;;;0.70;;
11211;SDS011;5663;50.864;12.096;2022-10-16T01:36:28;1.17;;;1.00;;
11211;SDS011;5663;50.864;12.096;2022-10-16T01:39:04;1.17;;;0.90;;
11211;SDS011;5663;50.864;12.096;2022-10-16T01:41:36;3.80;;;1.10;;
11211;SDS011;5663;50.864;12.096;2022-10-16T01:44:10;2.07;;;1.10;;
11211;SDS011;5663;50.864;12.096;2022-10-16T01:46:43;1.40;;;1.20;;
11211;SDS011;5663;50.864;12.096;2022-10-16T01:49:14;1.30;;;1.00;;
11211;SDS011;5663;50.864;12.096;2022-10-16T01:51:43;1.93;;;1.10;;
11211;SDS011;5663;50.864;12.096;2022-10-16T01:54:15;1.60;;;1.00;;
11211;SDS011;5663;50.864;12.096;2022-10-16T01:56:47;2.20;;;1.10;;
11211;SDS011;5663;50.864;12.096;2022-10-16T01:59:19;1.27;;;0.80;;
11211;SDS011;5663;50.864;12.096;2022-10-16T02:01:52;1.57;;;1.20;;
11211;SDS011;5663;50.864;12.096;2022-10-16T02:04:26;1.20;;;1.10;;
11211;SDS011;5663;50.864;12.096;2022-10-16T02:06:57;3.97;;;1.00;;
11211;SDS011;5663;50.864;12.096;2022-10-16T02:09:25;1.23;;;1.13;;
11211;SDS011;5663;50.864;12.096;2022-10-16T02:11:53;3.73;;;1.30;;
11211;SDS011;5663;50.864;12.096;2022-10-16T02:14:27;3.30;;;1.13;;
11211;SDS011;5663;50.864;12.096;2022-10-16T02:16:55;1.13;;;1.03;;
11211;SDS011;5663;50.864;12.096;2022-10-16T02:19:22;1.70;;;1.03;;
11211;SDS011;5663;50.864;12.096;2022-10-16T02:21:51;2.27;;;1.30;;
11211;SDS011;5663;50.864;12.096;2022-10-16T02:24:24;1.63;;;1.20;;
11211;SDS011;5663;50.864;12.096;2022-10-16T02:27:00;2.40;;;1.10;;
11211;SDS011;5663;50.864;12.096;2022-10-16T02:29:36;3.07;;;1.23;;
11211;SDS011;5663;50.864;12.096;2022-10-16T02:32:10;6.13;;;1.30;;
11211;SDS011;5663;50.864;12.096;2022-10-16T02:34:42;3.50;;;1.30;;
11211;SDS011;5663;50.864;12.096;2022-10-16T02:37:11;1.90;;;1.30;;
11211;SDS011;5663;50.864;12.096;2022-10-16T02:39:40;1.40;;;1.23;;
11211;SDS011;5663;50.864;12.096;2022-10-16T02:42:09;4.23;;;1.30;;
11211;SDS011;5663;50.864;12.096;2022-10-16T02:44:38;4.00;;;1.70;;
11211;SDS011;5663;50.864;12.096;2022-10-16T02:47:07;5.27;;;1.50;;
11211;SDS011;5663;50.864;12.096;2022-10-16T02:49:34;5.20;;;1.60;;
11211;SDS011;5663;50.864;12.096;2022-10-16T02:52:03;2.47;;;1.80;;
11211;SDS011;5663;50.864;12.096;2022-10-16T02:54:30;4.73;;;1.70;;
11211;SDS011;5663;50.864;12.096;2022-10-16T02:56:58;3.90;;;1.97;;
11211;SDS011;5663;50.864;12.096;2022-10-16T02:59:25;5.30;;;1.80;;
11211;SDS011;5663;50.864;12.096;2022-10-16T03:01:54;4.63;;;2.57;;
11211;SDS011;5663;50.864;12.096;2022-10-16T03:04:22;3.13;;;2.20;;
11211;SDS011;5663;50.864;12.096;2022-10-16T03:06:50;3.10;;;1.90;;
11211;SDS011;5663;50.864;12.096;2022-10-16T03:09:18;4.83;;;2.10;;
11211;SDS011;5663;50.864;12.096;2022-10-16T03:11:45;4.60;;;1.50;;
11211;SDS011;5663;50.864;12.096;2022-10-16T03:14:13;4.40;;;1.70;;
11211;SDS011;5663;50.864;12.096;2022-10-16T03:16:41;2.20;;;1.37;;
11211;SDS011;5663;50.864;12.096;2022-10-16T03:19:10;1.87;;;1.50;;
11211;SDS011;5663;50.864;12.096;2022-10-16T03:21:38;1.87;;;1.40;;
11211;SDS011;5663;50.864;12.096;2022-10-16T03:24:05;2.27;;;1.40;;
11211;SDS011;5663;50.864;12.096;2022-10-16T03:26:33;1.77;;;1.30;;
11211;SDS011;5663;50.864;12.096;2022-10-16T03:29:01;2.53;;;1.23;;
11211;SDS011;5663;50.864;12.096;2022-10-16T03:31:29;1.37;;;1.27;;
11211;SDS011;5663;50.864;12.096;2022-10-16T03:33:57;2.37;;;1.40;;
11211;SDS011;5663;50.864;12.096;2022-10-16T03:36:26;2.60;;;1.73;;
11211;SDS011;5663;50.864;12.096;2022-10-16T03:38:54;1.90;;;1.50;;
11211;SDS011;5663;50.864;12.096;2022-10-16T03:41:22;2.27;;;1.40;;
11211;SDS011;5663;50.864;12.096;2022-10-16T03:43:50;2.70;;;1.30;;
11211;SDS011;5663;50.864;12.096;2022-10-16T03:46:17;3.27;;;1.23;;
11211;SDS011;5663;50.864;12.096;2022-10-16T03:48:45;3.77;;;1.30;;
11211;SDS011;5663;50.864;12.096;2022-10-16T03:51:13;3.43;;;1.10;;
11211;SDS011;5663;50.864;12.096;2022-10-16T03:53:42;3.90;;;1.30;;
11211;SDS011;5663;50.864;12.096;2022-10-16T03:56:10;2.40;;;1.57;;
11211;SDS011;5663;50.864;12.096;2022-10-16T03:58:38;2.03;;;1.70;;
11211;SDS011;5663;50.864;12.096;2022-10-16T04:01:06;1.40;;;1.30;;
11211;SDS011;5663;50.864;12.096;2022-10-16T04:03:34;1.67;;;1.30;;
11211;SDS011;5663;50.864;12.096;2022-10-16T04:06:01;2.07;;;1.40;;
11211;SDS011;5663;50.864;12.096;2022-10-16T04:08:29;3.77;;;1.33;;
11211;SDS011;5663;50.864;12.096;2022-10-16T04:11:01;1.37;;;1.10;;
11211;SDS011;5663;50.864;12.096;2022-10-16T04:13:29;2.60;;;1.20;;
11211;SDS011;5663;50.864;12.096;2022-10-16T04:15:57;3.93;;;1.30;;
11211;SDS011;5663;50.864;12.096;2022-10-16T04:18:25;1.70;;;1.13;;
11211;SDS011;5663;50.864;12.096;2022-10-16T04:20:53;1.53;;;1.30;;
11211;SDS011;5663;50.864;12.096;2022-10-16T04:23:21;3.23;;;1.10;;
11211;SDS011;5663;50.864;12.096;2022-10-16T04:25:50;3.90;;;1.10;;
11211;SDS011;5663;50.864;12.096;2022-10-16T04:28:19;6.10;;;1.20;;
11211;SDS011;5663;50.864;12.096;2022-10-16T04:30:47;5.23;;;1.17;;
11211;SDS011;5663;50.864;12.096;2022-10-16T04:33:14;5.47;;;1.27;;
11211;SDS011;5663;50.864;12.096;2022-10-16T04:35:42;5.97;;;1.40;;
11211;SDS011;5663;50.864;12.096;2022-10-16T04:38:10;2.90;;;1.20;;
11211;SDS011;5663;50.864;12.096;2022-10-16T04:40:37;2.60;;;1.30;;
11211;SDS011;5663;50.864;12.096;2022-10-16T04:43:05;4.77;;;1.07;;
11211;SDS011;5663;50.864;12.096;2022-10-16T04:45:34;4.00;;;1.10;;
11211;SDS011;5663;50.864;12.096;2022-10-16T04:48:02;2.33;;;1.10;;
11211;SDS011;5663;50.864;12.096;2022-10-16T04:50:30;6.63;;;1.20;;
11211;SDS011;5663;50.864;12.096;2022-10-16T04:52:57;3.90;;;1.00;;
11211;SDS011;5663;50.864;12.096;2022-10-16T04:55:25;2.40;;;1.00;;
11211;SDS011;5663;50.864;12.096;2022-10-16T04:57:53;4.07;;;1.53;;
11211;SDS011;5663;50.864;12.096;2022-10-16T05:00:21;2.30;;;1.10;;
11211;SDS011;5663;50.864;12.096;2022-10-16T05:02:50;1.20;;;1.10;;
11211;SDS011;5663;50.864;12.096;2022-10-16T05:05:18;3.03;;;1.20;;
11211;SDS011;5663;50.864;12.096;2022-10-16T05:07:46;2.50;;;1.43;;
11211;SDS011;5663;50.864;12.096;2022-10-16T05:10:15;1.43;;;1.33;;
11211;SDS011;5663;50.864;12.096;2022-10-16T05:12:43;2.43;;;1.63;;
11211;SDS011;5663;50.864;12.096;2022-10-16T05:15:11;1.80;;;1.47;;
11211;SDS011;5663;50.864;12.096;2022-10-16T05:17:39;2.57;;;1.20;;
11211;SDS011;5663;50.864;12.096;2022-10-16T05:20:09;2.67;;;1.20;;
11211;SDS011;5663;50.864;12.096;2022-10-16T05:22:36;2.50;;;1.03;;
11211;SDS011;5663;50.864;12.096;2022-10-16T05:25:04;3.03;;;1.13;;
11211;SDS011;5663;50.864;12.096;2022-10-16T05:27:33;2.83;;;1.20;;
11211;SDS011;5663;50.864;12.096;2022-10-16T05:30:03;4.97;;;1.30;;
11211;SDS011;5663;50.864;12.096;2022-10-16T05:32:32;1.20;;;1.10;;
11211;SDS011;5663;50.864;12.096;2022-10-16T05:35:00;2.03;;;1.43;;
11211;SDS011;5663;50.864;12.096;2022-10-16T05:37:29;1.40;;;1.30;;
11211;SDS011;5663;50.864;12.096;2022-10-16T05:39:57;3.83;;;1.20;;
11211;SDS011;5663;50.864;12.096;2022-10-16T05:42:25;2.63;;;1.33;;
11211;SDS011;5663;50.864;12.096;2022-10-16T05:44:52;2.73;;;1.33;;
11211;SDS011;5663;50.864;12.096;2022-10-16T05:47:20;2.00;;;1.10;;
11211;SDS011;5663;50.864;12.096;2022-10-16T05:49:48;2.70;;;1.20;;
11211;SDS011;5663;50.864;12.096;2022-10-16T05:52:16;1.57;;;1.00;;
11211;SDS011;5663;50.864;12.096;2022-10-16T05:54:45;1.47;;;1.07;;
11211;SDS011;5663;50.864;12.096;2022-10-16T05:57:13;2.47;;;1.10;;
11211;SDS011;5663;50.864;12.096;2022-10-16T05:59:41;1.10;;;1.00;;
11211;SDS011;5663;50.864;12.096;2022-10-16T06:02:10;1.13;;;0.90;;
11211;SDS011;5663;50.864;12.096;2022-10-16T06:04:39;2.00;;;1.00;;
11211;SDS011;5663;50.864;12.096;2022-10-16T06:07:08;1.13;;;1.00;;
11211;SDS011;5663;50.864;12.096;2022-10-16T06:09:36;5.90;;;1.10;;
11211;SDS011;5663;50.864;12.096;2022-10-16T06:12:05;0.93;;;0.93;;
11211;SDS011;5663;50.864;12.096;2022-10-16T06:14:33;1.50;;;0.80;;
11211;SDS011;5663;50.864;12.096;2022-10-16T06:17:01;3.40;;;0.90;;
11211;SDS011;5663;50.864;12.096;2022-10-16T06:19:29;1.37;;;0.90;;
11211;SDS011;5663;50.864;12.096;2022-10-16T06:21:57;0.97;;;0.90;;
11211;SDS011;5663;50.864;12.096;2022-10-16T06:24:25;1.77;;;0.97;;
11211;SDS011;5663;50.864;12.096;2022-10-16T06:26:53;2.53;;;1.00;;
11211;SDS011;5663;50.864;12.096;2022-10-16T06:29:23;0.90;;;0.90;;
11211;SDS011;5663;50.864;12.096;2022-10-16T06:31:50;0.80;;;0.80;;
11211;SDS011;5663;50.864;12.096;2022-10-16T06:34:18;3.30;;;1.00;;
11211;SDS011;5663;50.864;12.096;2022-10-16T06:36:47;2.53;;;1.00;;
11211;SDS011;5663;50.864;12.096;2022-10-16T06:39:15;3.93;;;1.00;;
11211;SDS011;5663;50.864;12.096;2022-10-16T06:41:43;1.33;;;0.83;;
11211;SDS011;5663;50.864;12.096;2022-10-16T06:44:10;0.83;;;0.83;;
11211;SDS011;5663;50.864;12.096;2022-10-16T06:46:40;0.70;;;0.70;;
11211;SDS011;5663;50.864;12.096;2022-10-16T06:49:08;2.40;;;1.00;;
11211;SDS011;5663;50.864;12.096;2022-10-16T06:51:36;2.33;;;0.90;;
11211;SDS011;5663;50.864;12.096;2022-10-16T06:54:06;1.23;;;0.90;;
11211;SDS011;5663;50.864;12.096;2022-10-16T06:56:34;0.97;;;0.93;;
11211;SDS011;5663;50.864;12.096;2022-10-16T06:59:03;1.13;;;1.03;;
11211;SDS011;5663;50.864;12.096;2022-10-16T07:01:31;4.90;;;1.90;;
11211;SDS011;5663;50.864;12.096;2022-10-16T07:04:02;4.80;;;2.90;;
11211;SDS011;5663;50.864;12.096;2022-10-16T07:06:31;3.43;;;2.57;;
11211;SDS011;5663;50.864;12.096;2022-10-16T07:09:02;8.43;;;2.97;;
11211;SDS011;5663;50.864;12.096;2022-10-16T07:11:32;8.17;;;4.03;;
11211;SDS011;5663;50.864;12.096;2022-10-16T07:14:01;4.27;;;3.23;;
11211;SDS011;5663;50.864;12.096;2022-10-16T07:16:29;6.37;;;4.03;;
11211;SDS011;5663;50.864;12.096;2022-10-16T07:18:59;12.83;;;6.27;;
11211;SDS011;5663;50.864;12.096;2022-10-16T07:21:30;18.43;;;11.90;;
11211;SDS011;5663;50.864;12.096;2022-10-16T07:24:01;21.10;;;12.90;;
11211;SDS011;5663;50.864;12.096;2022-10-16T07:26:29;12.33;;;8.23;;
11211;SDS011;5663;50.864;12.096;2022-10-16T07:28:59;4.87;;;3.53;;
11211;SDS011;5663;50.864;12.096;2022-10-16T07:31:27;4.40;;;3.10;;
11211;SDS011;5663;50.864;12.096;2022-10-16T07:33:57;4.57;;;2.47;;
11211;SDS011;5663;50.864;12.096;2022-10-16T07:36:27;5.33;;;2.60;;
11211;SDS011;5663;50.864;12.096;2022-10-16T07:38:55;2.30;;;1.70;;
11211;SDS011;5663;50.864;12.096;2022-10-16T07:41:23;1.60;;;1.50;;
11211;SDS011;5663;50.864;12.096;2022-10-16T07:43:51;1.13;;;1.03;;
11211;SDS011;5663;50.864;12.096;2022-10-16T07:46:21;1.17;;;1.07;;
11211;SDS011;5663;50.864;12.096;2022-10-16T07:48:50;2.70;;;1.20;;
11211;SDS011;5663;50.864;12.096;2022-10-16T07:51:18;1.13;;;0.90;;
11211;SDS011;5663;50.864;12.096;2022-10-16T07:53:49;2.43;;;1.90;;
11211;SDS011;5663;50.864;12.096;2022-10-16T07:56:18;1.20;;;1.20;;
11211;SDS011;5663;50.864;12.096;2022-10-16T07:58:47;1.27;;;1.17;;
11211;SDS011;5663;50.864;12.096;2022-10-16T08:01:16;1.67;;;1.40;;
11211;SDS011;5663;50.864;12.096;2022-10-16T08:03:45;1.30;;;1.20;;
11211;SDS011;5663;50.864;12.096;2022-10-16T08:06:14;1.00;;;1.00;;
11211;SDS011;5663;50.864;12.096;2022-10-16T08:08:45;3.20;;;1.03;;
11211;SDS011;5663;50.864;12.096;2022-10-16T08:11:16;1.30;;;1.03;;
11211;SDS011;5663;50.864;12.096;2022-10-16T08:13:44;2.73;;;1.30;;
11211;SDS011;5663;50.864;12.096;2022-10-16T08:16:13;1.47;;;1.20;;
11211;SDS011;5663;50.864;12.096;2022-10-16T08:18:42;1.80;;;1.17;;
11211;SDS011;5663;50.864;12.096;2022-10-16T08:21:12;2.30;;;1.43;;
11211;SDS011;5663;50.864;12.096;2022-10-16T08:23:41;1.60;;;1.03;;
11211;SDS011;5663;50.864;12.096;2022-10-16T08:26:10;1.03;;;1.00;;
11211;SDS011;5663;50.864;12.096;2022-10-16T08:28:41;1.47;;;1.10;;
11211;SDS011;5663;50.864;12.096;2022-10-16T08:31:09;2.67;;;1.00;;
11211;SDS011;5663;50.864;12.096;2022-10-16T08:33:40;0.97;;;0.93;;
11211;SDS011;5663;50.864;12.096;2022-10-16T08:36:11;3.90;;;1.80;;
11211;SDS011;5663;50.864;12.096;2022-10-16T08:38:39;2.13;;;1.20;;
11211;SDS011;5663;50.864;12.096;2022-10-16T08:41:16;1.80;;;1.03;;
11211;SDS011;5663;50.864;12.096;2022-10-16T08:44:10;2.73;;;1.53;;
11211;SDS011;5663;50.864;12.096;2022-10-16T08:46:59;3.80;;;1.80;;
11211;SDS011;5663;50.864;12.096;2022-10-16T08:49:36;1.57;;;1.47;;
11211;SDS011;5663;50.864;12.096;2022-10-16T08:52:10;2.10;;;1.50;;
11211;SDS011;5663;50.864;12.096;2022-10-16T08:54:41;3.10;;;1.70;;
11211;SDS011;5663;50.864;12.096;2022-10-16T08:57:13;4.60;;;2.80;;
11211;SDS011;5663;50.864;12.096;2022-10-16T08:59:48;1.80;;;1.50;;
11211;SDS011;5663;50.864;12.096;2022-10-16T09:02:23;1.63;;;1.50;;
11211;SDS011;5663;50.864;12.096;2022-10-16T09:05:02;1.90;;;1.80;;
11211;SDS011;5663;50.864;12.096;2022-10-16T09:07:57;6.23;;;2.80;;
11211;SDS011;5663;50.864;12.096;2022-10-16T09:10:37;3.37;;;2.43;;
11211;SDS011;5663;50.864;12.096;2022-10-16T09:13:16;2.87;;;2.27;;
11211;SDS011;5663;50.864;12.096;2022-10-16T09:15:55;4.00;;;2.40;;
11211;SDS011;5663;50.864;12.096;2022-10-16T09:18:36;3.40;;;1.50;;
11211;SDS011;5663;50.864;12.096;2022-10-16T09:21:14;4.10;;;2.90;;
11211;SDS011;5663;50.864;12.096;2022-10-16T09:23:46;2.80;;;2.47;;
11211;SDS011;5663;50.864;12.096;2022-10-16T09:26:15;4.30;;;2.80;;
11211;SDS011;5663;50.864;12.096;2022-10-16T09:28:49;2.80;;;2.00;;
11211;SDS011;5663;50.864;12.096;2022-10-16T09:31:22;1.93;;;1.73;;
11211;SDS011;5663;50.864;12.096;2022-10-16T09:33:51;1.70;;;1.60;;
11211;SDS011;5663;50.864;12.096;2022-10-16T09:36:25;2.27;;;1.70;;
11211;SDS011;5663;50.864;12.096;2022-10-16T09:39:01;3.47;;;2.20;;
11211;SDS011;5663;50.864;12.096;2022-10-16T09:41:33;3.97;;;2.13;;
11211;SDS011;5663;50.864;12.096;2022-10-16T09:44:03;4.40;;;2.27;;
11211;SDS011;5663;50.864;12.096;2022-10-16T09:46:43;1.93;;;1.83;;
11211;SDS011;5663;50.864;12.096;2022-10-16T09:49:21;1.80;;;1.60;;
11211;SDS011;5663;50.864;12.096;2022-10-16T09:51:50;2.00;;;1.80;;
11211;SDS011;5663;50.864;12.096;2022-10-16T09:54:30;2.03;;;1.83;;
11211;SDS011;5663;50.864;12.096;2022-10-16T09:57:06;1.90;;;1.80;;
11211;SDS011;5663;50.864;12.096;2022-10-16T09:59:48;3.97;;;1.80;;
11211;SDS011;5663;50.864;12.096;2022-10-16T10:02:29;2.03;;;1.80;;
11211;SDS011;5663;50.864;12.096;2022-10-16T10:05:01;1.65;;;1.55;;
11211;SDS011;5663;50.864;12.096;2022-10-16T10:07:39;3.87;;;1.77;;
11211;SDS011;5663;50.864;12.096;2022-10-16T10:10:19;3.53;;;1.60;;
11211;SDS011;5663;50.864;12.096;2022-10-16T10:12:51;1.73;;;1.63;;
11211;SDS011;5663;50.864;12.096;2022-10-16T10:15:21;2.28;;;1.48;;
11211;SDS011;5663;50.864;12.096;2022-10-16T10:17:53;2.13;;;1.40;;
11211;SDS011;5663;50.864;12.096;2022-10-16T10:20:26;1.50;;;1.40;;
11211;SDS011;5663;50.864;12.096;2022-10-16T10:22:57;2.58;;;1.33;;
11211;SDS011;5663;50.864;12.096;2022-10-16T10:25:32;1.52;;;1.38;;
11211;SDS011;5663;50.864;12.096;2022-10-16T10:28:10;2.08;;;1.88;;
11211;SDS011;5663;50.864;12.096;2022-10-16T10:30:52;2.90;;;1.90;;
11211;SDS011;5663;50.864;12.096;2022-10-16T10:33:28;3.70;;;2.17;;
11211;SDS011;5663;50.864;12.096;2022-10-16T10:36:07;3.25;;;1.80;;
11211;SDS011;5663;50.864;12.096;2022-10-16T10:38:49;1.83;;;1.73;;
11211;SDS011;5663;50.864;12.096;2022-10-16T10:41:30;3.78;;;1.60;;
11211;SDS011;5663;50.864;12.096;2022-10-16T10:44:16;2.45;;;1.40;;
11211;SDS011;5663;50.864;12.096;2022-10-16T10:46:55;2.33;;;1.45;;
11211;SDS011;5663;50.864;12.096;2022-10-16T10:49:37;1.55;;;1.45;;
11211;SDS011;5663;50.864;12.096;2022-10-16T10:52:28;1.60;;;1.50;;
11211;SDS011;5663;50.864;12.096;2022-10-16T10:55:09;5.35;;;1.88;;
11211;SDS011;5663;50.864;12.096;2022-10-16T10:57:49;2.88;;;1.60;;
11211;SDS011;5663;50.864;12.096;2022-10-16T11:00:30;4.35;;;1.60;;
11211;SDS011;5663;50.864;12.096;2022-10-16T11:03:09;1.60;;;1.50;;
11211;SDS011;5663;50.864;12.096;2022-10-16T11:05:53;2.35;;;1.00;;
11211;SDS011;5663;50.864;12.096;2022-10-16T11:08:27;5.28;;;1.50;;
11211;SDS011;5663;50.864;12.096;2022-10-16T11:11:00;3.00;;;1.30;;
11211;SDS011;5663;50.864;12.096;2022-10-16T11:13:32;1.40;;;1.30;;
11211;SDS011;5663;50.864;12.096;2022-10-16T11:16:04;3.85;;;1.30;;
11211;SDS011;5663;50.864;12.096;2022-10-16T11:18:42;1.83;;;1.05;;
11211;SDS011;5663;50.864;12.096;2022-10-16T11:21:18;1.30;;;1.20;;
11211;SDS011;5663;50.864;12.096;2022-10-16T11:23:50;2.80;;;1.40;;
11211;SDS011;5663;50.864;12.096;2022-10-16T11:26:23;1.20;;;1.10;;
11211;SDS011;5663;50.864;12.096;2022-10-16T11:28:55;1.30;;;1.20;;
11211;SDS011;5663;50.864;12.096;2022-10-16T11:31:28;4.25;;;1.50;;
11211;SDS011;5663;50.864;12.096;2022-10-16T11:34:01;2.38;;;1.30;;
11211;SDS011;5663;50.864;12.096;2022-10-16T11:36:36;1.27;;;1.13;;
11211;SDS011;5663;50.864;12.096;2022-10-16T11:39:11;3.38;;;1.33;;
11211;SDS011;5663;50.864;12.096;2022-10-16T11:41:49;1.50;;;1.35;;
11211;SDS011;5663;50.864;12.096;2022-10-16T11:44:38;2.55;;;1.40;;
11211;SDS011;5663;50.864;12.096;2022-10-16T11:47:39;3.00;;;1.40;;
11211;SDS011;5663;50.864;12.096;2022-10-16T11:50:19;2.22;;;1.20;;
11211;SDS011;5663;50.864;12.096;2022-10-16T11:52:59;2.13;;;1.10;;
11211;SDS011;5663;50.864;12.096;2022-10-16T11:55:36;1.65;;;1.20;;
11211;SDS011;5663;50.864;12.096;2022-10-16T11:58:07;1.67;;;1.48;;
11211;SDS011;5663;50.864;12.096;2022-10-16T12:00:43;1.20;;;1.10;;
11211;SDS011;5663;50.864;12.096;2022-10-16T12:03:20;1.88;;;1.45;;
11211;SDS011;5663;50.864;12.096;2022-10-16T12:05:57;2.83;;;1.17;;
11211;SDS011;5663;50.864;12.096;2022-10-16T12:08:39;2.17;;;1.40;;
11211;SDS011;5663;50.864;12.096;2022-10-16T12:11:19;1.60;;;1.50;;
11211;SDS011;5663;50.864;12.096;2022-10-16T12:13:52;4.78;;;1.48;;
11211;SDS011;5663;50.864;12.096;2022-10-16T12:16:36;2.35;;;1.30;;
11211;SDS011;5663;50.864;12.096;2022-10-16T12:19:10;1.30;;;1.20;;
11211;SDS011;5663;50.864;12.096;2022-10-16T12:21:40;2.13;;;1.10;;
11211;SDS011;5663;50.864;12.096;2022-10-16T12:24:20;1.77;;;1.50;;
11211;SDS011;5663;50.864;12.096;2022-10-16T12:26:54;0.93;;;0.90;;
11211;SDS011;5663;50.864;12.096;2022-10-16T12:29:28;0.98;;;0.90;;
11211;SDS011;5663;50.864;12.096;2022-10-16T12:32:01;2.42;;;1.30;;
11211;SDS011;5663;50.864;12.096;2022-10-16T12:34:34;1.05;;;0.90;;
11211;SDS011;5663;50.864;12.096;2022-10-16T12:37:10;2.55;;;1.13;;
11211;SDS011;5663;50.864;12.096;2022-10-16T12:39:49;1.10;;;1.00;;
11211;SDS011;5663;50.864;12.096;2022-10-16T12:42:23;1.23;;;1.13;;
11211;SDS011;5663;50.864;12.096;2022-10-16T12:45:00;1.40;;;0.85;;
11211;SDS011;5663;50.864;12.096;2022-10-16T12:47:37;0.80;;;0.80;;
11211;SDS011;5663;50.864;12.096;2022-10-16T12:50:29;1.27;;;1.17;;
11211;SDS011;5663;50.864;12.096;2022-10-16T12:53:03;1.92;;;1.23;;
11211;SDS011;5663;50.864;12.096;2022-10-16T12:55:48;1.67;;;1.08;;
11211;SDS011;5663;50.864;12.096;2022-10-16T13:01:33;2.03;;;1.10;;
11211;SDS011;5663;50.864;12.096;2022-10-16T13:04:17;1.58;;;1.15;;
11211;SDS011;5663;50.864;12.096;2022-10-16T13:07:02;4.57;;;1.40;;
11211;SDS011;5663;50.864;12.096;2022-10-16T13:09:45;2.58;;;1.15;;
11211;SDS011;5663;50.864;12.096;2022-10-16T13:12:30;4.07;;;1.10;;
11211;SDS011;5663;50.864;12.096;2022-10-16T13:15:17;0.90;;;0.90;;
11211;SDS011;5663;50.864;12.096;2022-10-16T13:18:02;1.77;;;1.00;;
11211;SDS011;5663;50.864;12.096;2022-10-16T13:20:51;2.58;;;1.10;;
11211;SDS011;5663;50.864;12.096;2022-10-16T13:23:29;1.00;;;0.90;;
11211;SDS011;5663;50.864;12.096;2022-10-16T13:26:09;1.08;;;0.98;;
11211;SDS011;5663;50.864;12.096;2022-10-16T13:28:50;1.05;;;1.00;;
11211;SDS011;5663;50.864;12.096;2022-10-16T13:31:18;1.17;;;0.85;;
11211;SDS011;5663;50.864;12.096;2022-10-16T13:33:51;1.20;;;0.90;;
11211;SDS011;5663;50.864;12.096;2022-10-16T13:36:21;2.08;;;1.00;;
11211;SDS011;5663;50.864;12.096;2022-10-16T13:38:59;0.90;;;0.90;;
11211;SDS011;5663;50.864;12.096;2022-10-16T13:41:32;0.93;;;0.90;;
11211;SDS011;5663;50.864;12.096;2022-10-16T13:44:03;1.00;;;0.90;;
11211;SDS011;5663;50.864;12.096;2022-10-16T13:46:34;2.00;;;1.00;;
11211;SDS011;5663;50.864;12.096;2022-10-16T13:49:04;1.50;;;1.00;;
11211;SDS011;5663;50.864;12.096;2022-10-16T13:51:38;1.98;;;1.00;;
11211;SDS011;5663;50.864;12.096;2022-10-16T13:54:09;0.73;;;0.73;;
11211;SDS011;5663;50.864;12.096;2022-10-16T13:56:38;0.98;;;0.90;;
11211;SDS011;5663;50.864;12.096;2022-10-16T14:02:14;1.13;;;0.90;;
11211;SDS011;5663;50.864;12.096;2022-10-16T14:04:48;3.65;;;0.70;;
11211;SDS011;5663;50.864;12.096;2022-10-16T14:07:18;0.80;;;0.80;;
11211;SDS011;5663;50.864;12.096;2022-10-16T14:09:51;0.73;;;0.73;;
11211;SDS011;5663;50.864;12.096;2022-10-16T14:12:22;2.25;;;0.77;;
11211;SDS011;5663;50.864;12.096;2022-10-16T14:14:53;1.77;;;1.02;;
11211;SDS011;5663;50.864;12.096;2022-10-16T14:17:23;0.82;;;0.80;;
11211;SDS011;5663;50.864;12.096;2022-10-16T14:19:54;1.65;;;1.25;;
11211;SDS011;5663;50.864;12.096;2022-10-16T14:22:27;1.00;;;0.90;;
11211;SDS011;5663;50.864;12.096;2022-10-16T14:24:58;1.08;;;0.73;;
11211;SDS011;5663;50.864;12.096;2022-10-16T14:27:31;0.95;;;0.70;;
11211;SDS011;5663;50.864;12.096;2022-10-16T14:30:12;4.25;;;0.90;;
11211;SDS011;5663;50.864;12.096;2022-10-16T14:32:54;0.93;;;0.73;;
11211;SDS011;5663;50.864;12.096;2022-10-16T14:35:33;0.88;;;0.60;;
11211;SDS011;5663;50.864;12.096;2022-10-16T14:38:48;1.90;;;0.70;;
11211;SDS011;5663;50.864;12.096;2022-10-16T14:41:43;0.50;;;0.50;;
11211;SDS011;5663;50.864;12.096;2022-10-16T14:44:18;1.00;;;0.90;;
11211;SDS011;5663;50.864;12.096;2022-10-16T14:46:52;2.00;;;0.60;;
11211;SDS011;5663;50.864;12.096;2022-10-16T14:49:20;4.70;;;0.70;;
11211;SDS011;5663;50.864;12.096;2022-10-16T14:51:50;1.05;;;0.35;;
11211;SDS011;5663;50.864;12.096;2022-10-16T14:54:18;0.90;;;0.90;;
11211;SDS011;5663;50.864;12.096;2022-10-16T14:56:48;1.95;;;1.20;;
11211;SDS011;5663;50.864;12.096;2022-10-16T14:59:18;1.65;;;0.95;;
11211;SDS011;5663;50.864;12.096;2022-10-16T15:01:53;1.65;;;0.90;;
11211;SDS011;5663;50.864;12.096;2022-10-16T15:04:22;2.47;;;1.80;;
11211;SDS011;5663;50.864;12.096;2022-10-16T15:06:50;1.45;;;1.30;;
11211;SDS011;5663;50.864;12.096;2022-10-16T15:09:19;2.97;;;1.60;;
11211;SDS011;5663;50.864;12.096;2022-10-16T15:11:47;2.35;;;0.90;;
11211;SDS011;5663;50.864;12.096;2022-10-16T15:14:15;1.80;;;0.75;;
11211;SDS011;5663;50.864;12.096;2022-10-16T15:16:43;0.93;;;0.93;;
11211;SDS011;5663;50.864;12.096;2022-10-16T15:19:17;4.60;;;0.73;;
11211;SDS011;5663;50.864;12.096;2022-10-16T15:21:45;0.82;;;0.80;;
11211;SDS011;5663;50.864;12.096;2022-10-16T15:24:15;2.35;;;1.00;;
11211;SDS011;5663;50.864;12.096;2022-10-16T15:26:42;0.90;;;0.90;;